Time;durP1;ratioP1;P1;durP2;ratioP2;P2;SDS_P1;SDS_P2;PMS_P1;PMS_P2;Temp;Humidity;BMP_temperature;BMP_pressure;BME280_temperature;BME280_humidity;BME280_pressure;Samples;Min_cycle;Max_cycle;Signal;HPM_P1;HPM_P2
2022/05/18 00:01:39;;;;;;;3.90;3.60;;;;;;;19.44;57.38;101914.84;5010125;28;100250;-85
2022/05/18 00:04:04;;;;;;;4.60;4.03;;;;;;;19.41;57.43;101907.53;5011880;28;97156;-84
2022/05/18 00:06:30;;;;;;;4.30;4.00;;;;;;;19.37;57.55;101915.44;4990514;28;97142;-84
2022/05/18 00:08:55;;;;;;;3.60;3.40;;;;;;;19.30;57.37;101900.00;5010045;28;99917;-84
2022/05/18 00:11:20;;;;;;;3.63;3.43;;;;;;;19.33;57.48;101910.09;4988915;28;98319;-84
2022/05/18 00:13:49;;;;;;;3.83;3.40;;;;;;;19.30;57.61;101916.00;5005403;28;96990;-85
2022/05/18 00:16:16;;;;;;;3.80;3.60;;;;;;;19.28;57.49;101901.81;4994958;28;96767;-84
2022/05/18 00:18:41;;;;;;;4.30;4.00;;;;;;;19.25;57.58;101906.38;4992807;28;98802;-84
2022/05/18 00:21:07;;;;;;;5.63;3.80;;;;;;;19.21;57.44;101902.38;5008212;28;99414;-85
2022/05/18 00:23:34;;;;;;;4.43;4.03;;;;;;;19.17;57.54;101904.69;4990968;28;96763;-85
2022/05/18 00:26:00;;;;;;;3.80;3.60;;;;;;;19.13;57.66;101910.56;4997294;28;96716;-85
2022/05/18 00:28:25;;;;;;;5.43;3.40;;;;;;;19.11;57.86;101913.09;5009731;28;99094;-85
2022/05/18 00:30:51;;;;;;;5.30;4.37;;;;;;;19.08;57.88;101938.50;4983789;28;99934;-85
2022/05/18 00:33:17;;;;;;;4.70;4.30;;;;;;;19.05;57.93;101926.34;4989956;28;97472;-85
2022/05/18 00:35:43;;;;;;;4.23;3.93;;;;;;;19.06;58.00;101927.88;5008239;28;96930;-85
2022/05/18 00:38:09;;;;;;;3.77;3.57;;;;;;;19.04;57.91;101924.88;4988150;28;97289;-84
2022/05/18 00:40:38;;;;;;;7.50;5.07;;;;;;;19.04;58.03;101927.66;4999321;28;97054;-84
2022/05/18 00:43:04;;;;;;;4.13;3.83;;;;;;;19.05;57.97;101931.94;5009170;28;96794;-84
2022/05/18 00:45:29;;;;;;;3.70;3.40;;;;;;;19.04;57.89;101930.44;5002958;28;97044;-84
2022/05/18 00:47:55;;;;;;;4.53;4.23;;;;;;;19.00;58.00;101929.94;4998729;28;97089;-85
2022/05/18 00:50:27;;;;;;;4.30;4.00;;;;;;;18.98;58.11;101943.66;4988553;28;99257;-85
2022/05/18 00:53:06;;;;;;;4.10;3.80;;;;;;;18.96;58.32;101921.09;5004128;28;97258;-84
2022/05/18 00:55:37;;;;;;;3.80;3.50;;;;;;;18.94;58.22;101917.31;4981297;28;97389;-85
2022/05/18 00:58:20;;;;;;;3.77;3.57;;;;;;;18.91;58.73;101932.31;5004845;28;99894;-86
2022/05/18 01:00:47;;;;;;;6.30;2.87;;;;;;;18.89;58.22;101934.88;4988173;28;99584;-85
2022/05/18 01:03:22;;;;;;;3.67;3.47;;;;;;;18.89;58.78;101946.81;5000672;28;96949;-84
2022/05/18 01:05:53;;;;;;;4.27;3.97;;;;;;;18.87;58.28;101938.16;4994404;28;97034;-84
2022/05/18 01:08:41;;;;;;;3.70;3.50;;;;;;;18.87;59.35;101943.75;4984310;28;98825;-84
2022/05/18 01:11:07;;;;;;;3.97;3.70;;;;;;;18.81;58.24;101929.09;4990240;28;98621;-84
2022/05/18 01:13:33;;;;;;;7.50;3.80;;;;;;;18.84;58.32;101944.81;4986282;28;97200;-85
2022/05/18 01:15:58;;;;;;;3.20;3.00;;;;;;;18.84;58.40;101946.81;5001714;28;97019;-85
2022/05/18 01:18:24;;;;;;;4.20;3.90;;;;;;;18.81;58.36;101945.81;4988713;28;98288;-85
2022/05/18 01:20:50;;;;;;;4.07;3.80;;;;;;;18.81;58.26;101943.03;5004426;28;96673;-84
2022/05/18 01:23:45;;;;;;;3.83;3.57;;;;;;;18.81;59.58;101942.28;4983703;28;96817;-84
2022/05/18 01:26:18;;;;;;;4.03;3.83;;;;;;;18.73;59.10;101933.72;5004745;28;98162;-85
2022/05/18 01:28:51;;;;;;;4.20;3.90;;;;;;;18.75;58.75;101942.31;4997376;28;96927;-85
2022/05/18 01:31:16;;;;;;;3.67;3.47;;;;;;;18.76;58.67;101938.28;4978783;28;99566;-85
2022/05/18 01:33:42;;;;;;;4.13;3.83;;;;;;;18.74;58.71;101935.22;5000770;28;97043;-84
2022/05/18 01:36:07;;;;;;;4.67;4.37;;;;;;;18.72;58.93;101940.56;4983064;28;97068;-86
2022/05/18 01:38:33;;;;;;;6.07;4.40;;;;;;;18.75;58.88;101936.75;4990346;28;98633;-85
2022/05/18 01:41:04;;;;;;;4.33;4.03;;;;;;;18.78;58.74;101927.38;4996069;28;99216;-84
2022/05/18 01:43:41;;;;;;;5.10;4.70;;;;;;;18.78;59.73;101932.19;5000807;28;97041;-85
2022/05/18 01:46:10;;;;;;;4.27;3.97;;;;;;;18.77;58.91;101927.88;5004465;28;96915;-85
2022/05/18 01:48:40;;;;;;;5.70;4.50;;;;;;;18.75;58.83;101931.19;5005458;28;96961;-85
2022/05/18 01:51:07;;;;;;;3.90;3.60;;;;;;;18.71;58.92;101922.34;4983822;28;97254;-84
2022/05/18 01:53:34;;;;;;;4.40;4.10;;;;;;;18.76;58.96;101923.56;5004814;28;97153;-84
2022/05/18 01:56:00;;;;;;;4.57;4.17;;;;;;;18.69;59.03;101916.53;5001158;28;96821;-85
2022/05/18 01:58:26;;;;;;;4.47;4.17;;;;;;;18.70;59.23;101923.59;4987161;28;98345;-85
2022/05/18 02:00:52;;;;;;;4.63;4.23;;;;;;;18.69;59.05;101920.09;4985926;28;97100;-85
2022/05/18 02:03:19;;;;;;;5.77;5.17;;;;;;;18.71;59.48;101933.50;4997247;28;96916;-85
2022/05/18 02:05:45;;;;;;;5.40;5.00;;;;;;;18.74;59.34;101940.06;4985789;28;97071;-86
2022/05/18 02:08:12;;;;;;;5.43;5.03;;;;;;;18.76;59.39;101931.94;4984271;28;97156;-84
2022/05/18 02:10:37;;;;;;;5.77;5.20;;;;;;;18.79;59.47;101920.50;5006051;28;96959;-85
2022/05/18 02:13:03;;;;;;;6.30;5.80;;;;;;;18.81;59.48;101934.69;4998494;28;96997;-84
2022/05/18 02:15:29;;;;;;;7.37;6.70;;;;;;;18.80;59.70;101930.38;4987420;28;97011;-85
2022/05/18 02:17:54;;;;;;;5.33;4.93;;;;;;;18.81;59.66;101929.09;4989907;28;97886;-85
2022/05/18 02:20:21;;;;;;;5.77;5.37;;;;;;;18.73;59.59;101925.38;4987823;28;97552;-85
2022/05/18 02:22:47;;;;;;;7.03;6.40;;;;;;;18.82;59.61;101941.78;4998984;28;97205;-85
2022/05/18 02:25:13;;;;;;;5.67;5.27;;;;;;;18.82;59.70;101952.16;5005517;28;97233;-85
2022/05/18 02:27:39;;;;;;;6.70;6.07;;;;;;;18.78;59.63;101930.16;5001147;28;97048;-85
2022/05/18 02:30:05;;;;;;;6.17;5.70;;;;;;;18.78;59.69;101935.72;5001622;28;98527;-84
2022/05/18 02:32:31;;;;;;;6.27;5.77;;;;;;;18.79;59.76;101939.25;5003223;28;97341;-84
2022/05/18 02:34:56;;;;;;;6.33;5.83;;;;;;;18.78;59.93;101946.88;5005910;28;97422;-85
2022/05/18 02:37:22;;;;;;;6.93;6.33;;;;;;;18.80;60.02;101941.53;4987479;28;104179;-85
2022/05/18 02:39:48;;;;;;;6.60;6.00;;;;;;;18.78;59.95;101932.19;4998097;28;96993;-85
2022/05/18 02:42:13;;;;;;;6.80;6.30;;;;;;;18.82;59.88;101952.16;5002402;28;96824;-85
2022/05/18 02:44:39;;;;;;;7.80;7.10;;;;;;;18.83;59.89;101954.44;5002952;28;97169;-85
2022/05/18 02:47:05;;;;;;;6.57;5.97;;;;;;;18.87;59.91;101943.75;4980235;28;100121;-85
2022/05/18 02:49:31;;;;;;;7.00;6.30;;;;;;;18.87;60.08;101949.31;5003130;28;97803;-85
2022/05/18 02:51:57;;;;;;;7.20;6.60;;;;;;;18.87;60.07;101966.06;5000177;28;97072;-84
2022/05/18 02:57:08;;;;;;;7.20;6.50;;;;;;;18.90;60.04;101948.28;5001510;28;96719;-85
2022/05/18 02:59:34;;;;;;;6.43;5.93;;;;;;;18.90;60.05;101944.75;4992298;28;97109;-85
2022/05/18 03:02:00;;;;;;;7.50;6.80;;;;;;;18.90;60.04;101965.03;4984617;28;96935;-84
2022/05/18 03:04:26;;;;;;;7.50;6.80;;;;;;;18.91;60.26;101957.44;4987771;28;97026;-86
2022/05/18 03:06:52;;;;;;;9.00;7.20;;;;;;;18.92;60.12;101968.06;4989775;28;99524;-85
2022/05/18 03:09:18;;;;;;;8.20;7.40;;;;;;;18.91;60.02;101955.41;5008230;28;97688;-84
2022/05/18 03:11:44;;;;;;;7.07;6.47;;;;;;;18.88;60.14;101955.66;4989297;28;98124;-85
2022/05/18 03:14:10;;;;;;;9.00;6.80;;;;;;;18.89;60.22;101965.56;5004071;28;96834;-84
2022/05/18 03:16:37;;;;;;;7.67;6.97;;;;;;;18.87;60.20;101966.06;4982523;28;96759;-85
2022/05/18 03:19:03;;;;;;;7.13;6.43;;;;;;;18.87;60.07;101966.06;5005287;28;98536;-85
2022/05/18 03:24:12;;;;;;;7.40;6.70;;;;;;;18.87;60.38;101977.22;5001911;28;97151;-85
2022/05/18 03:26:38;;;;;;;8.03;6.90;;;;;;;18.87;60.38;101963.28;4978786;28;98226;-85
2022/05/18 03:29:03;;;;;;;7.73;6.80;;;;;;;18.89;60.38;101960.75;5003887;28;96907;-84
2022/05/18 03:31:29;;;;;;;8.87;7.97;;;;;;;18.91;60.44;101971.38;4981022;28;97062;-85
2022/05/18 03:33:55;;;;;;;7.37;6.67;;;;;;;18.88;60.54;101964.03;4999329;28;96787;-85
2022/05/18 03:36:22;;;;;;;9.13;7.60;;;;;;;18.88;60.75;101972.41;4990222;28;98924;-86
2022/05/18 03:38:48;;;;;;;8.10;7.40;;;;;;;18.88;60.62;101962.00;4998956;28;99642;-85
2022/05/18 03:41:14;;;;;;;7.93;7.23;;;;;;;18.89;60.77;101963.53;5006457;28;97210;-85
2022/05/18 03:43:41;;;;;;;7.40;6.70;;;;;;;18.91;60.75;101963.78;4987196;28;97135;-84
2022/05/18 03:46:06;;;;;;;7.77;7.07;;;;;;;18.90;60.75;101976.19;4987358;28;100172;-85
2022/05/18 03:48:33;;;;;;;8.23;7.50;;;;;;;18.89;60.77;101969.09;4980503;28;97476;-86
2022/05/18 03:51:01;;;;;;;8.40;7.60;;;;;;;18.92;60.70;101965.25;4983458;28;97478;-86
2022/05/18 03:53:27;;;;;;;8.47;7.40;;;;;;;18.94;60.77;101961.94;4987832;28;96876;-86
2022/05/18 03:55:53;;;;;;;7.70;7.00;;;;;;;18.98;60.94;101965.97;4985019;28;98828;-86
2022/05/18 03:58:19;;;;;;;6.80;6.30;;;;;;;19.01;60.77;101975.34;4996701;28;98700;-85
2022/05/18 04:00:46;;;;;;;8.03;7.03;;;;;;;19.02;60.92;101949.72;4999253;28;97226;-85
2022/05/18 04:03:14;;;;;;;6.90;6.30;;;;;;;19.03;60.64;101954.03;4983707;28;96873;-85
2022/05/18 04:05:40;;;;;;;9.30;7.00;;;;;;;19.06;60.84;101957.81;4979044;28;102897;-86
2022/05/18 04:08:08;;;;;;;9.53;8.43;;;;;;;19.03;60.90;101958.84;4984509;28;97717;-85
2022/05/18 04:10:35;;;;;;;9.93;8.30;;;;;;;19.09;60.93;101971.47;4984858;28;96887;-85
2022/05/18 04:13:00;;;;;;;8.00;7.27;;;;;;;19.14;60.92;101969.91;4985908;28;96964;-85
2022/05/18 04:15:27;;;;;;;8.40;7.57;;;;;;;19.16;60.92;101976.47;4991275;28;96799;-86
2022/05/18 04:17:53;;;;;;;8.50;7.17;;;;;;;19.22;60.86;101982.03;4994477;28;97064;-85
2022/05/18 04:20:21;;;;;;;10.50;8.00;;;;;;;19.22;60.71;101979.97;4931178;28;97041;-85
2022/05/18 04:22:48;;;;;;;12.03;7.40;;;;;;;19.22;61.06;101987.63;4965470;28;97244;-85
2022/05/18 04:25:16;;;;;;;8.00;7.30;;;;;;;19.24;60.94;101977.41;4987262;28;98589;-85
2022/05/18 04:27:42;;;;;;;8.00;7.10;;;;;;;19.27;60.99;101984.00;4994070;28;97538;-85
2022/05/18 04:30:08;;;;;;;8.07;7.37;;;;;;;19.26;61.04;101986.03;4987138;28;96764;-85
2022/05/18 04:32:37;;;;;;;11.10;8.07;;;;;;;19.31;61.01;101985.22;4986746;28;97026;-85
2022/05/18 04:35:02;;;;;;;10.20;7.93;;;;;;;19.34;61.21;101986.22;5000126;28;97115;-84
2022/05/18 04:37:28;;;;;;;8.50;7.70;;;;;;;19.35;61.07;101982.19;4994915;28;98142;-85
2022/05/18 04:39:53;;;;;;;8.10;7.30;;;;;;;19.42;61.09;101993.53;4988504;28;97291;-85
2022/05/18 04:42:22;;;;;;;7.67;6.97;;;;;;;19.47;60.91;101986.38;4986870;28;97059;-85
2022/05/18 04:44:51;;;;;;;8.37;7.43;;;;;;;19.51;61.01;101980.50;4987852;28;96824;-84
2022/05/18 04:47:20;;;;;;;8.57;6.60;;;;;;;19.55;61.07;101983.78;4996473;28;101667;-85
2022/05/18 04:49:45;;;;;;;8.17;7.43;;;;;;;19.56;60.92;101991.63;4989749;28;96763;-85
2022/05/18 04:52:10;;;;;;;8.37;7.00;;;;;;;19.60;61.02;101985.75;4987882;28;96789;-85
2022/05/18 04:54:36;;;;;;;7.30;6.70;;;;;;;19.63;61.06;101998.66;4989280;28;109888;-85
2022/05/18 04:57:01;;;;;;;7.57;6.87;;;;;;;19.68;60.94;101997.88;4997358;28;97638;-85
2022/05/18 04:59:27;;;;;;;8.17;7.47;;;;;;;19.69;60.98;101993.78;4993105;28;97479;-85
2022/05/18 05:01:54;;;;;;;7.13;6.43;;;;;;;19.69;61.06;101997.34;4995792;28;97245;-85
2022/05/18 05:04:19;;;;;;;8.27;7.47;;;;;;;19.68;60.98;101998.59;4984757;28;98360;-85
2022/05/18 05:06:45;;;;;;;6.47;5.93;;;;;;;19.67;61.11;102001.91;4983953;28;99901;-85
2022/05/18 05:09:10;;;;;;;8.40;7.00;;;;;;;19.68;61.16;102009.03;5000312;28;96684;-85
2022/05/18 05:11:36;;;;;;;7.37;6.70;;;;;;;19.66;61.34;102000.44;4992222;28;96902;-85
2022/05/18 05:14:01;;;;;;;6.80;6.20;;;;;;;19.63;61.18;102018.97;4987229;28;99473;-85
2022/05/18 05:16:28;;;;;;;7.17;6.60;;;;;;;19.64;61.14;102012.09;4996250;28;99473;-86
2022/05/18 05:18:54;;;;;;;7.80;7.00;;;;;;;19.61;61.10;102013.16;4980772;28;97259;-85
2022/05/18 05:21:19;;;;;;;8.40;7.60;;;;;;;19.65;61.07;102015.66;4983664;28;96887;-85
2022/05/18 05:23:46;;;;;;;8.10;7.27;;;;;;;19.67;61.09;102013.09;4999013;28;96855;-85
2022/05/18 05:26:12;;;;;;;7.00;6.30;;;;;;;19.70;61.23;101998.09;4985641;28;98642;-85
2022/05/18 05:28:37;;;;;;;7.57;6.87;;;;;;;19.69;61.41;102002.16;5003604;28;97239;-85
2022/05/18 05:31:07;;;;;;;7.63;6.97;;;;;;;19.76;61.26;102010.72;4983214;28;96744;-86
2022/05/18 05:33:34;;;;;;;8.10;7.37;;;;;;;19.78;61.30;102008.16;4997659;28;99679;-85
2022/05/18 05:35:59;;;;;;;7.33;6.63;;;;;;;19.84;61.15;102010.88;5001957;28;97386;-85
2022/05/18 05:38:25;;;;;;;7.27;6.57;;;;;;;19.86;61.04;102011.09;4994251;28;99042;-85
2022/05/18 05:40:51;;;;;;;7.37;6.67;;;;;;;19.88;61.10;102009.31;4976970;28;97034;-85
2022/05/18 05:43:16;;;;;;;6.97;6.33;;;;;;;19.92;61.14;102009.03;5003725;28;96888;-85
2022/05/18 05:45:41;;;;;;;9.27;7.23;;;;;;;19.93;61.20;102021.69;5001161;28;97663;-85
2022/05/18 05:48:09;;;;;;;8.50;7.60;;;;;;;19.95;61.12;102002.38;5002109;28;97326;-86
2022/05/18 05:50:35;;;;;;;7.30;6.27;;;;;;;19.96;61.09;101998.31;4998784;28;96797;-86
2022/05/18 05:53:00;;;;;;;7.67;6.87;;;;;;;19.96;61.13;101995.53;4986853;28;98619;-85
2022/05/18 05:55:27;;;;;;;6.63;6.03;;;;;;;19.96;61.22;102001.84;4989752;28;98541;-85
2022/05/18 05:57:56;;;;;;;7.07;6.47;;;;;;;19.95;61.15;102000.34;4988220;28;96840;-86
2022/05/18 06:00:22;;;;;;;8.03;6.70;;;;;;;19.98;60.96;102004.13;4981160;28;98654;-85
2022/05/18 06:02:50;;;;;;;7.63;6.93;;;;;;;19.97;61.20;102002.59;4994330;28;96815;-85
2022/05/18 06:05:16;;;;;;;6.97;6.27;;;;;;;19.97;61.07;102013.78;4991473;28;99651;-85
2022/05/18 06:07:41;;;;;;;7.57;6.77;;;;;;;19.96;61.11;102010.22;4990570;28;96840;-85
2022/05/18 06:10:07;;;;;;;7.10;6.50;;;;;;;19.95;61.02;102025.50;4988928;28;97537;-85
2022/05/18 06:12:33;;;;;;;8.80;7.00;;;;;;;19.93;61.21;102007.72;4983624;28;100146;-85
2022/05/18 06:14:59;;;;;;;7.17;6.50;;;;;;;19.97;61.05;102013.78;4985556;28;99658;-85
2022/05/18 06:17:24;;;;;;;7.00;6.13;;;;;;;20.01;61.14;102008.66;5000697;28;97182;-85
2022/05/18 06:19:49;;;;;;;6.87;6.30;;;;;;;20.03;61.18;102011.66;4989057;28;97365;-85
2022/05/18 06:22:15;;;;;;;7.53;6.93;;;;;;;20.07;60.97;102023.34;5001072;28;98889;-85
2022/05/18 06:24:40;;;;;;;8.73;6.50;;;;;;;20.14;61.20;102025.50;4982091;28;99882;-85
2022/05/18 06:27:07;;;;;;;7.40;6.80;;;;;;;20.22;61.19;102018.09;4999895;28;97069;-83
2022/05/18 06:29:32;;;;;;;6.80;6.20;;;;;;;20.35;61.03;102023.03;4993237;28;97342;-83
2022/05/18 06:31:58;;;;;;;8.20;6.50;;;;;;;20.41;60.93;102044.03;4986540;28;97988;-82
2022/05/18 06:34:23;;;;;;;8.73;6.83;;;;;;;20.50;60.97;102024.09;5001473;28;98589;-83
2022/05/18 06:36:50;;;;;;;7.50;6.40;;;;;;;20.64;61.00;102025.66;5003291;28;96903;-83
2022/05/18 06:39:18;;;;;;;7.37;6.67;;;;;;;20.73;61.02;102028.06;4979733;28;97515;-84
2022/05/18 06:41:45;;;;;;;6.60;6.00;;;;;;;20.84;60.90;102043.94;5001321;28;98236;-84
2022/05/18 06:44:10;;;;;;;8.70;6.90;;;;;;;20.93;60.94;102024.72;4992247;28;97718;-84
2022/05/18 06:46:37;;;;;;;6.33;5.73;;;;;;;21.09;60.75;102031.41;4988400;28;97470;-83
2022/05/18 06:49:04;;;;;;;7.10;6.10;;;;;;;21.17;60.45;102032.28;5000381;28;96975;-84
2022/05/18 06:51:32;;;;;;;6.70;6.10;;;;;;;21.21;60.16;102027.13;4989409;28;96980;-84
2022/05/18 06:53:58;;;;;;;7.77;6.60;;;;;;;21.22;60.31;102028.63;5007385;28;96737;-83
2022/05/18 06:56:28;;;;;;;6.97;6.20;;;;;;;21.25;60.26;102030.34;4995314;28;96737;-83
2022/05/18 06:58:54;;;;;;;6.73;6.13;;;;;;;21.28;60.34;102017.34;5008587;28;96935;-84
2022/05/18 07:01:20;;;;;;;7.73;6.00;;;;;;;21.32;60.37;102015.72;5002928;28;99590;-82
2022/05/18 07:03:47;;;;;;;5.67;5.27;;;;;;;21.40;60.03;102025.03;4981670;28;102812;-84
2022/05/18 07:06:14;;;;;;;7.50;6.10;;;;;;;21.50;60.05;102023.31;4989573;28;97366;-83
2022/05/18 07:08:40;;;;;;;7.20;6.50;;;;;;;21.59;60.04;102019.34;4986982;28;97081;-84
2022/05/18 07:11:06;;;;;;;5.90;5.40;;;;;;;21.65;60.04;102026.34;4982022;28;100065;-83
2022/05/18 07:13:33;;;;;;;6.50;5.80;;;;;;;21.71;59.85;102023.44;4986317;28;98247;-84
2022/05/18 07:15:59;;;;;;;6.00;5.20;;;;;;;21.83;59.76;102019.19;4985393;28;97009;-83
2022/05/18 07:18:29;;;;;;;6.73;6.00;;;;;;;21.97;59.73;102029.09;4987257;28;97225;-83
2022/05/18 07:20:56;;;;;;;5.97;5.37;;;;;;;22.11;59.41;102025.00;4990059;28;97054;-85
2022/05/18 07:23:23;;;;;;;7.40;5.97;;;;;;;22.22;59.23;102021.97;4973029;28;97570;-85
2022/05/18 07:25:50;;;;;;;10.63;5.17;;;;;;;22.34;59.04;102022.50;4985719;28;97075;-85
2022/05/18 07:28:16;;;;;;;5.47;4.97;;;;;;;22.45;58.66;102013.09;5005451;28;97383;-85
2022/05/18 07:30:41;;;;;;;6.03;5.50;;;;;;;22.53;58.65;102019.53;4996110;28;98743;-84
2022/05/18 07:33:06;;;;;;;5.77;5.27;;;;;;;22.62;58.46;102035.94;4986783;28;100476;-84
2022/05/18 07:35:32;;;;;;;4.13;3.83;;;;;;;22.69;58.20;102026.84;4987237;28;97530;-83
2022/05/18 07:37:58;;;;;;;4.40;4.00;;;;;;;22.73;58.28;102018.84;5000900;28;96921;-83
2022/05/18 07:40:23;;;;;;;6.20;4.07;;;;;;;22.74;58.29;102017.53;5000377;28;97569;-85
2022/05/18 07:42:49;;;;;;;5.90;3.80;;;;;;;22.84;58.06;102019.38;5000682;28;97342;-85
2022/05/18 07:45:14;;;;;;;4.70;4.30;;;;;;;22.94;57.81;102014.78;4980666;28;96820;-85
2022/05/18 07:47:40;;;;;;;5.40;4.50;;;;;;;23.06;57.54;102010.38;4999088;28;96813;-84
2022/05/18 07:50:06;;;;;;;7.63;4.13;;;;;;;23.21;57.35;102006.22;4985800;28;97634;-85
2022/05/18 07:52:32;;;;;;;4.37;3.87;;;;;;;23.33;57.18;102001.84;4996736;28;97542;-86
2022/05/18 07:54:58;;;;;;;5.20;4.37;;;;;;;23.39;56.93;102006.03;4987131;28;97133;-82
2022/05/18 07:57:23;;;;;;;4.30;4.00;;;;;;;23.49;57.08;102007.03;4986737;28;96971;-85
2022/05/18 07:59:54;;;;;;;4.50;3.80;;;;;;;23.61;56.75;102013.13;4997396;28;99652;-84
2022/05/18 08:02:20;;;;;;;3.63;3.33;;;;;;;23.72;56.41;102007.94;4997421;28;97339;-84
2022/05/18 08:04:45;;;;;;;3.63;3.40;;;;;;;23.83;56.59;102004.84;5002732;28;96972;-84
2022/05/18 08:07:10;;;;;;;4.47;3.77;;;;;;;23.98;56.21;102009.81;4980516;28;97097;-84
2022/05/18 08:15:05;;;;;;;3.90;3.60;;;;;;;24.12;56.36;101999.19;4989588;28;100620;-83
2022/05/18 08:15:05;;;;;;;3.87;3.53;;;;;;;24.36;55.59;102007.19;5001895;28;96755;-83
2022/05/18 08:17:31;;;;;;;4.43;3.80;;;;;;;24.49;55.54;102007.78;4985357;28;97087;-84
2022/05/18 08:19:56;;;;;;;3.90;3.50;;;;;;;24.63;55.21;102035.78;4985948;28;99874;-85
2022/05/18 08:22:22;;;;;;;3.43;3.17;;;;;;;24.72;54.51;101998.66;4987298;28;99248;-84
2022/05/18 08:24:47;;;;;;;3.80;3.10;;;;;;;24.81;54.32;101998.91;4980925;28;97197;-84
2022/05/18 08:27:15;;;;;;;6.60;4.13;;;;;;;24.91;54.22;101996.28;4984494;28;97054;-85
2022/05/18 08:29:41;;;;;;;3.47;3.17;;;;;;;25.00;53.70;101998.56;4986506;28;101411;-86
2022/05/18 08:32:06;;;;;;;3.30;2.87;;;;;;;25.11;53.69;101998.94;4987064;28;97812;-85
2022/05/18 08:34:33;;;;;;;3.00;2.80;;;;;;;25.24;53.53;101983.91;4978295;28;97305;-84
2022/05/18 08:37:00;;;;;;;3.83;3.20;;;;;;;25.39;53.27;101998.00;4983598;28;98803;-85
2022/05/18 08:39:26;;;;;;;3.07;2.87;;;;;;;25.52;53.01;102008.34;4998405;28;97280;-84
2022/05/18 08:41:51;;;;;;;3.40;2.90;;;;;;;25.64;52.48;101987.63;5001102;28;97503;-84
2022/05/18 08:44:46;;;;;;;3.40;3.10;;;;;;;25.71;50.91;101986.88;4982560;28;96772;-85
2022/05/18 08:47:16;;;;;;;6.77;3.10;;;;;;;25.87;52.06;101990.41;4963495;28;98799;-86
2022/05/18 08:49:50;;;;;;;4.43;3.57;;;;;;;26.00;51.34;101993.00;4988097;28;97904;-84
2022/05/18 08:52:32;;;;;;;3.93;3.30;;;;;;;26.13;51.37;101986.41;4982933;28;100546;-86
2022/05/18 08:55:32;;;;;;;2.53;2.40;;;;;;;26.23;50.69;101990.91;4999478;28;96804;-84
2022/05/18 08:57:59;;;;;;;4.10;3.20;;;;;;;26.40;51.50;101993.81;5000144;28;97136;-85
2022/05/18 09:00:30;;;;;;;3.10;2.80;;;;;;;26.56;51.00;101998.03;4988551;28;97106;-86
2022/05/18 09:03:05;;;;;;;2.73;2.53;;;;;;;26.74;49.29;101996.09;4989822;28;98016;-85
2022/05/18 09:05:56;;;;;;;3.60;2.40;;;;;;;26.90;49.06;102000.31;4988042;28;97007;-83
2022/05/18 09:08:25;;;;;;;3.90;2.83;;;;;;;27.08;49.47;101992.66;5001365;28;96953;-85
2022/05/18 09:10:53;;;;;;;3.20;2.63;;;;;;;27.19;49.02;101989.38;4992435;28;97378;-82
2022/05/18 09:13:20;;;;;;;6.20;2.70;;;;;;;27.28;49.09;101994.38;4991919;28;98517;-85
2022/05/18 09:16:10;;;;;;;2.40;2.20;;;;;;;27.41;47.89;101983.53;4978401;28;98700;-84
2022/05/18 09:18:52;;;;;;;2.70;2.50;;;;;;;27.60;47.75;101973.75;5000286;28;97084;-87
2022/05/18 09:21:27;;;;;;;3.00;2.70;;;;;;;27.74;48.55;101978.47;4999448;28;103116;-83
2022/05/18 09:24:15;;;;;;;3.60;2.37;;;;;;;27.86;47.33;101978.72;4994940;28;101939;-85
2022/05/18 09:27:05;;;;;;;2.30;2.10;;;;;;;27.98;46.00;101972.00;4987405;28;97830;-85
2022/05/18 09:29:58;;;;;;;2.40;2.23;;;;;;;28.10;46.65;101975.84;4975191;28;98630;-86
2022/05/18 09:32:42;;;;;;;2.67;2.47;;;;;;;28.26;46.34;101964.31;4987266;28;97256;-84
2022/05/18 09:35:32;;;;;;;2.87;2.67;;;;;;;28.39;45.71;101972.44;4982131;28;102014;-84
2022/05/18 09:38:15;;;;;;;3.03;2.40;;;;;;;28.49;46.10;101964.75;5002550;28;97059;-85
2022/05/18 09:40:45;;;;;;;2.60;2.40;;;;;;;28.59;46.71;101969.13;4988075;28;97315;-85
2022/05/18 09:43:19;;;;;;;3.00;2.40;;;;;;;28.76;45.79;101960.59;4976245;28;98859;-84
2022/05/18 09:45:47;;;;;;;3.40;2.57;;;;;;;28.81;46.06;101964.50;4982243;28;100178;-86
2022/05/18 09:48:20;;;;;;;2.30;2.10;;;;;;;28.94;45.20;101947.81;4999178;28;96935;-87
2022/05/18 09:50:48;;;;;;;2.87;2.47;;;;;;;29.11;45.83;101951.91;4995991;28;97706;-87
2022/05/18 09:53:14;;;;;;;3.57;2.33;;;;;;;29.23;45.68;101964.94;4986564;28;98499;-85
2022/05/18 09:55:41;;;;;;;2.57;2.30;;;;;;;29.37;45.13;101953.94;4980298;28;100023;-86
2022/05/18 09:58:14;;;;;;;2.97;2.77;;;;;;;29.46;44.76;101956.78;4985926;28;96785;-85
2022/05/18 10:00:40;;;;;;;2.37;2.17;;;;;;;29.53;44.65;101963.66;4993804;28;97479;-85
2022/05/18 10:09:15;;;;;;;2.03;1.90;;;;;;;29.72;43.16;101960.81;4997074;28;96736;-85
2022/05/18 10:11:42;;;;;;;2.47;2.27;;;;;;;29.76;44.26;101957.56;5000653;28;96970;-83
2022/05/18 10:14:11;;;;;;;2.10;1.83;;;;;;;29.82;43.92;101952.31;5003005;28;97983;-84
2022/05/18 10:16:58;;;;;;;2.37;2.20;;;;;;;29.90;42.87;101947.25;4991166;28;101837;-85
2022/05/18 10:19:47;;;;;;;2.87;2.50;;;;;;;29.99;42.35;101949.34;4991688;28;99790;-85
2022/05/18 10:22:19;;;;;;;2.00;1.90;;;;;;;30.11;42.46;101953.81;5007525;28;97813;-85
2022/05/18 10:24:49;;;;;;;2.93;1.87;;;;;;;30.17;42.66;101953.47;4986307;28;101938;-86
2022/05/18 10:27:21;;;;;;;2.33;2.13;;;;;;;30.25;41.89;101945.56;5007684;28;100842;-86
2022/05/18 10:30:20;;;;;;;2.33;1.97;;;;;;;30.32;40.46;101951.09;5002828;28;98241;-84
2022/05/18 10:32:53;;;;;;;2.10;1.90;;;;;;;30.35;41.89;101941.38;5002056;28;99476;-86
2022/05/18 10:35:49;;;;;;;2.10;1.83;;;;;;;30.28;41.09;101947.19;4987475;28;96799;-84
2022/05/18 10:38:26;;;;;;;2.50;2.30;;;;;;;30.38;41.65;101945.81;4998214;28;101747;-86
2022/05/18 10:41:05;;;;;;;3.00;1.70;;;;;;;30.48;41.66;101933.69;4993871;28;98454;-86
2022/05/18 10:43:41;;;;;;;1.60;1.50;;;;;;;30.58;40.68;101937.97;4985111;28;98986;-85
2022/05/18 10:46:19;;;;;;;1.40;1.33;;;;;;;30.64;40.12;101938.44;4998567;28;103867;-86
2022/05/18 10:48:59;;;;;;;2.20;1.67;;;;;;;30.73;39.32;101937.63;4984147;28;102178;-84
2022/05/18 10:51:29;;;;;;;1.77;1.67;;;;;;;30.78;39.71;101945.09;4993816;28;97073;-84
2022/05/18 10:54:14;;;;;;;1.93;1.63;;;;;;;30.81;37.15;101929.66;4992990;28;96841;-83
2022/05/18 10:56:39;;;;;;;1.50;1.40;;;;;;;30.94;39.91;101931.28;5002534;28;103447;-84
2022/05/18 10:59:11;;;;;;;2.00;1.80;;;;;;;31.08;39.08;101926.56;4988821;28;98480;-83
2022/05/18 11:01:48;;;;;;;2.93;1.67;;;;;;;31.24;38.62;101918.34;4988016;28;96941;-85
2022/05/18 11:04:24;;;;;;;1.50;1.33;;;;;;;31.36;38.47;101913.50;4988152;28;96968;-86
2022/05/18 11:06:49;;;;;;;1.77;1.63;;;;;;;31.46;38.65;101912.09;5004950;28;103012;-85
2022/05/18 11:09:28;;;;;;;1.50;1.27;;;;;;;31.56;37.65;101909.91;4984264;28;97186;-86
2022/05/18 11:12:06;;;;;;;2.33;1.40;;;;;;;31.68;37.33;101909.94;4987386;28;98030;-84
2022/05/18 11:14:46;;;;;;;3.83;1.70;;;;;;;31.77;38.11;101909.13;5004043;28;99043;-85
2022/05/18 11:17:20;;;;;;;1.93;1.70;;;;;;;31.86;37.76;101901.84;4992387;28;104287;-84
2022/05/18 11:19:49;;;;;;;3.23;1.50;;;;;;;31.94;37.91;101900.25;5002281;28;97403;-83
2022/05/18 11:22:35;;;;;;;2.00;1.90;;;;;;;31.98;37.42;101896.97;4978877;28;96868;-85
2022/05/18 11:25:18;;;;;;;1.93;1.50;;;;;;;31.94;36.58;101897.41;4991263;28;97121;-87
2022/05/18 11:27:52;;;;;;;2.30;2.00;;;;;;;31.69;37.19;101897.94;4985234;28;100678;-86
2022/05/18 11:30:39;;;;;;;1.67;1.57;;;;;;;31.79;36.79;101900.72;4986338;28;98594;-85
2022/05/18 11:33:17;;;;;;;1.90;1.50;;;;;;;31.88;36.93;101897.03;4995752;28;97030;-85
2022/05/18 11:36:02;;;;;;;2.80;2.00;;;;;;;31.76;37.81;101885.59;5008831;28;97240;-85
2022/05/18 11:38:52;;;;;;;1.87;1.77;;;;;;;31.69;36.50;101894.38;4999672;28;104969;-84
2022/05/18 11:41:34;;;;;;;1.70;1.60;;;;;;;31.51;37.83;101885.41;4991057;28;98769;-86
2022/05/18 11:44:34;;;;;;;2.23;2.07;;;;;;;31.51;36.87;101879.69;4994302;28;97062;-85
2022/05/18 11:47:28;;;;;;;2.40;1.50;;;;;;;31.78;36.88;101879.31;5000182;28;96974;-84
2022/05/18 11:50:04;;;;;;;1.60;1.50;;;;;;;32.10;36.01;101895.63;4977787;28;100885;-85